sensor_id;sensor_type;location;lat;lon;timestamp;P1;durP1;ratioP1;P2;durP2;ratioP2
5153;SDS011;2595;53.584;10.084;2022-09-27T00:00:22;2.53;;;2.33;;
5153;SDS011;2595;53.584;10.084;2022-09-27T00:02:47;2.57;;;2.37;;
5153;SDS011;2595;53.584;10.084;2022-09-27T00:05:13;3.10;;;2.67;;
5153;SDS011;2595;53.584;10.084;2022-09-27T00:07:39;2.80;;;2.53;;
5153;SDS011;2595;53.584;10.084;2022-09-27T00:10:05;2.60;;;2.50;;
5153;SDS011;2595;53.584;10.084;2022-09-27T00:12:32;2.40;;;2.30;;
5153;SDS011;2595;53.584;10.084;2022-09-27T00:14:59;3.63;;;3.43;;
5153;SDS011;2595;53.584;10.084;2022-09-27T00:17:26;2.40;;;2.30;;
5153;SDS011;2595;53.584;10.084;2022-09-27T00:19:52;2.63;;;2.10;;
5153;SDS011;2595;53.584;10.084;2022-09-27T00:22:20;3.23;;;3.03;;
5153;SDS011;2595;53.584;10.084;2022-09-27T00:24:46;2.53;;;2.43;;
5153;SDS011;2595;53.584;10.084;2022-09-27T00:27:12;2.30;;;2.20;;
5153;SDS011;2595;53.584;10.084;2022-09-27T00:29:38;4.03;;;2.50;;
5153;SDS011;2595;53.584;10.084;2022-09-27T00:32:03;3.10;;;2.90;;
5153;SDS011;2595;53.584;10.084;2022-09-27T00:34:29;2.70;;;2.60;;
5153;SDS011;2595;53.584;10.084;2022-09-27T00:36:55;2.90;;;2.70;;
5153;SDS011;2595;53.584;10.084;2022-09-27T00:39:20;2.70;;;2.60;;
5153;SDS011;2595;53.584;10.084;2022-09-27T00:41:46;3.53;;;2.67;;
5153;SDS011;2595;53.584;10.084;2022-09-27T00:47:03;2.40;;;2.30;;
5153;SDS011;2595;53.584;10.084;2022-09-27T00:49:41;2.00;;;1.90;;
5153;SDS011;2595;53.584;10.084;2022-09-27T00:55:01;2.50;;;2.40;;
5153;SDS011;2595;53.584;10.084;2022-09-27T00:57:47;3.13;;;2.90;;
5153;SDS011;2595;53.584;10.084;2022-09-27T01:00:14;4.17;;;2.20;;
5153;SDS011;2595;53.584;10.084;2022-09-27T01:02:43;2.37;;;2.27;;
5153;SDS011;2595;53.584;10.084;2022-09-27T01:05:13;2.13;;;2.03;;
5153;SDS011;2595;53.584;10.084;2022-09-27T01:07:40;2.10;;;2.00;;
5153;SDS011;2595;53.584;10.084;2022-09-27T01:10:06;2.40;;;2.20;;
5153;SDS011;2595;53.584;10.084;2022-09-27T01:34:54;2.23;;;2.13;;
5153;SDS011;2595;53.584;10.084;2022-09-27T01:42:57;3.10;;;3.00;;
5153;SDS011;2595;53.584;10.084;2022-09-27T01:45:37;3.00;;;2.80;;
5153;SDS011;2595;53.584;10.084;2022-09-27T01:48:29;3.50;;;3.20;;
5153;SDS011;2595;53.584;10.084;2022-09-27T01:50:59;2.73;;;2.30;;
5153;SDS011;2595;53.584;10.084;2022-09-27T01:53:37;4.20;;;2.70;;
5153;SDS011;2595;53.584;10.084;2022-09-27T01:56:06;2.23;;;1.87;;
5153;SDS011;2595;53.584;10.084;2022-09-27T01:58:41;2.57;;;2.40;;
5153;SDS011;2595;53.584;10.084;2022-09-27T02:01:13;2.70;;;2.60;;
5153;SDS011;2595;53.584;10.084;2022-09-27T02:03:41;2.73;;;2.53;;
5153;SDS011;2595;53.584;10.084;2022-09-27T02:06:16;2.37;;;2.27;;
5153;SDS011;2595;53.584;10.084;2022-09-27T02:08:48;2.60;;;2.50;;
5153;SDS011;2595;53.584;10.084;2022-09-27T02:11:18;3.20;;;3.00;;
5153;SDS011;2595;53.584;10.084;2022-09-27T02:24:26;2.40;;;2.30;;
5153;SDS011;2595;53.584;10.084;2022-09-27T02:27:27;2.97;;;2.77;;
5153;SDS011;2595;53.584;10.084;2022-09-27T02:29:59;2.27;;;2.17;;
5153;SDS011;2595;53.584;10.084;2022-09-27T02:32:30;2.80;;;2.70;;
5153;SDS011;2595;53.584;10.084;2022-09-27T02:34:57;2.67;;;2.57;;
5153;SDS011;2595;53.584;10.084;2022-09-27T02:37:26;3.23;;;2.97;;
5153;SDS011;2595;53.584;10.084;2022-09-27T02:39:52;2.90;;;2.70;;
5153;SDS011;2595;53.584;10.084;2022-09-27T02:42:18;2.57;;;2.47;;
5153;SDS011;2595;53.584;10.084;2022-09-27T02:44:44;2.67;;;2.53;;
5153;SDS011;2595;53.584;10.084;2022-09-27T02:52:42;2.50;;;2.40;;
5153;SDS011;2595;53.584;10.084;2022-09-27T03:00:50;2.53;;;2.43;;
5153;SDS011;2595;53.584;10.084;2022-09-27T03:03:21;3.10;;;2.90;;
5153;SDS011;2595;53.584;10.084;2022-09-27T03:06:02;2.67;;;2.57;;
5153;SDS011;2595;53.584;10.084;2022-09-27T03:08:31;2.67;;;2.57;;
5153;SDS011;2595;53.584;10.084;2022-09-27T03:10:57;3.30;;;3.10;;
5153;SDS011;2595;53.584;10.084;2022-09-27T03:13:23;2.50;;;2.40;;
5153;SDS011;2595;53.584;10.084;2022-09-27T03:15:49;3.07;;;2.90;;
5153;SDS011;2595;53.584;10.084;2022-09-27T03:18:14;3.03;;;2.77;;
5153;SDS011;2595;53.584;10.084;2022-09-27T03:20:40;3.80;;;3.60;;
5153;SDS011;2595;53.584;10.084;2022-09-27T03:23:06;3.17;;;2.97;;
5153;SDS011;2595;53.584;10.084;2022-09-27T03:25:31;3.07;;;2.97;;
5153;SDS011;2595;53.584;10.084;2022-09-27T03:27:57;2.60;;;2.50;;
5153;SDS011;2595;53.584;10.084;2022-09-27T03:30:23;4.03;;;3.20;;
5153;SDS011;2595;53.584;10.084;2022-09-27T03:32:48;2.93;;;2.73;;
5153;SDS011;2595;53.584;10.084;2022-09-27T03:35:14;2.93;;;2.83;;
5153;SDS011;2595;53.584;10.084;2022-09-27T03:37:40;3.20;;;3.00;;
5153;SDS011;2595;53.584;10.084;2022-09-27T03:40:06;3.10;;;3.00;;
5153;SDS011;2595;53.584;10.084;2022-09-27T03:42:32;3.13;;;2.80;;
5153;SDS011;2595;53.584;10.084;2022-09-27T03:44:58;2.70;;;2.60;;
5153;SDS011;2595;53.584;10.084;2022-09-27T03:47:24;2.73;;;2.63;;
5153;SDS011;2595;53.584;10.084;2022-09-27T03:49:50;2.80;;;2.70;;
5153;SDS011;2595;53.584;10.084;2022-09-27T03:52:15;3.13;;;3.00;;
5153;SDS011;2595;53.584;10.084;2022-09-27T03:54:42;3.00;;;2.80;;
5153;SDS011;2595;53.584;10.084;2022-09-27T03:57:08;3.27;;;3.10;;
5153;SDS011;2595;53.584;10.084;2022-09-27T03:59:34;3.40;;;3.20;;
5153;SDS011;2595;53.584;10.084;2022-09-27T04:02:00;2.93;;;2.83;;
5153;SDS011;2595;53.584;10.084;2022-09-27T04:04:25;4.40;;;4.20;;
5153;SDS011;2595;53.584;10.084;2022-09-27T04:06:51;3.27;;;3.07;;
5153;SDS011;2595;53.584;10.084;2022-09-27T04:09:17;3.67;;;3.47;;
5153;SDS011;2595;53.584;10.084;2022-09-27T04:11:42;3.00;;;2.80;;
5153;SDS011;2595;53.584;10.084;2022-09-27T04:14:08;3.17;;;2.97;;
5153;SDS011;2595;53.584;10.084;2022-09-27T04:16:35;3.93;;;3.63;;
5153;SDS011;2595;53.584;10.084;2022-09-27T04:19:00;3.50;;;3.30;;
5153;SDS011;2595;53.584;10.084;2022-09-27T04:21:26;4.00;;;3.80;;
5153;SDS011;2595;53.584;10.084;2022-09-27T04:23:52;4.20;;;3.87;;
5153;SDS011;2595;53.584;10.084;2022-09-27T04:26:18;4.33;;;4.03;;
5153;SDS011;2595;53.584;10.084;2022-09-27T04:28:45;3.57;;;3.37;;
5153;SDS011;2595;53.584;10.084;2022-09-27T04:31:11;4.27;;;4.07;;
5153;SDS011;2595;53.584;10.084;2022-09-27T04:33:37;4.90;;;3.60;;
5153;SDS011;2595;53.584;10.084;2022-09-27T04:36:02;3.60;;;3.30;;
5153;SDS011;2595;53.584;10.084;2022-09-27T04:38:46;4.77;;;4.50;;
5153;SDS011;2595;53.584;10.084;2022-09-27T04:41:12;4.67;;;4.37;;
5153;SDS011;2595;53.584;10.084;2022-09-27T04:43:39;4.00;;;3.80;;
5153;SDS011;2595;53.584;10.084;2022-09-27T04:46:05;4.33;;;4.03;;
5153;SDS011;2595;53.584;10.084;2022-09-27T04:48:30;5.43;;;4.10;;
5153;SDS011;2595;53.584;10.084;2022-09-27T04:50:57;5.33;;;4.83;;
5153;SDS011;2595;53.584;10.084;2022-09-27T04:53:24;5.10;;;4.40;;
5153;SDS011;2595;53.584;10.084;2022-09-27T04:55:51;4.27;;;4.07;;
5153;SDS011;2595;53.584;10.084;2022-09-27T04:58:17;6.50;;;3.73;;
5153;SDS011;2595;53.584;10.084;2022-09-27T05:00:43;3.97;;;3.77;;
5153;SDS011;2595;53.584;10.084;2022-09-27T05:03:09;4.13;;;3.93;;
5153;SDS011;2595;53.584;10.084;2022-09-27T05:05:35;3.83;;;3.63;;
5153;SDS011;2595;53.584;10.084;2022-09-27T05:08:00;5.13;;;4.67;;
5153;SDS011;2595;53.584;10.084;2022-09-27T05:10:26;4.17;;;3.97;;
5153;SDS011;2595;53.584;10.084;2022-09-27T05:12:52;4.70;;;4.30;;
5153;SDS011;2595;53.584;10.084;2022-09-27T05:15:17;3.87;;;3.67;;
5153;SDS011;2595;53.584;10.084;2022-09-27T05:17:43;5.10;;;4.70;;
5153;SDS011;2595;53.584;10.084;2022-09-27T05:20:09;3.83;;;3.60;;
5153;SDS011;2595;53.584;10.084;2022-09-27T05:22:35;4.10;;;3.90;;
5153;SDS011;2595;53.584;10.084;2022-09-27T05:25:02;4.27;;;4.03;;
5153;SDS011;2595;53.584;10.084;2022-09-27T05:27:28;4.30;;;3.90;;
5153;SDS011;2595;53.584;10.084;2022-09-27T05:29:55;4.60;;;4.20;;
5153;SDS011;2595;53.584;10.084;2022-09-27T05:32:20;4.77;;;4.23;;
5153;SDS011;2595;53.584;10.084;2022-09-27T05:34:46;4.60;;;4.40;;
5153;SDS011;2595;53.584;10.084;2022-09-27T05:37:13;5.10;;;4.80;;
5153;SDS011;2595;53.584;10.084;2022-09-27T05:39:38;5.00;;;4.70;;
5153;SDS011;2595;53.584;10.084;2022-09-27T05:42:04;5.30;;;5.00;;
5153;SDS011;2595;53.584;10.084;2022-09-27T05:44:32;5.47;;;5.07;;
5153;SDS011;2595;53.584;10.084;2022-09-27T05:46:59;5.23;;;4.93;;
5153;SDS011;2595;53.584;10.084;2022-09-27T05:49:28;5.60;;;5.30;;
5153;SDS011;2595;53.584;10.084;2022-09-27T05:51:53;5.87;;;5.37;;
5153;SDS011;2595;53.584;10.084;2022-09-27T05:54:19;5.00;;;4.70;;
5153;SDS011;2595;53.584;10.084;2022-09-27T05:56:44;5.90;;;5.50;;
5153;SDS011;2595;53.584;10.084;2022-09-27T05:59:10;6.20;;;5.80;;
5153;SDS011;2595;53.584;10.084;2022-09-27T06:01:36;6.67;;;6.07;;
5153;SDS011;2595;53.584;10.084;2022-09-27T06:04:02;5.33;;;5.03;;
5153;SDS011;2595;53.584;10.084;2022-09-27T06:06:30;6.10;;;5.80;;
5153;SDS011;2595;53.584;10.084;2022-09-27T06:08:56;6.80;;;6.50;;
5153;SDS011;2595;53.584;10.084;2022-09-27T06:11:21;6.40;;;5.90;;
5153;SDS011;2595;53.584;10.084;2022-09-27T06:13:47;6.77;;;6.37;;
5153;SDS011;2595;53.584;10.084;2022-09-27T06:16:13;5.50;;;5.20;;
5153;SDS011;2595;53.584;10.084;2022-09-27T06:18:38;8.10;;;7.60;;
5153;SDS011;2595;53.584;10.084;2022-09-27T06:21:04;8.83;;;8.30;;
5153;SDS011;2595;53.584;10.084;2022-09-27T06:23:31;8.03;;;7.53;;
5153;SDS011;2595;53.584;10.084;2022-09-27T06:26:00;7.00;;;6.60;;
5153;SDS011;2595;53.584;10.084;2022-09-27T06:28:30;7.37;;;6.67;;
5153;SDS011;2595;53.584;10.084;2022-09-27T06:30:56;8.87;;;7.23;;
5153;SDS011;2595;53.584;10.084;2022-09-27T06:33:24;8.60;;;7.70;;
5153;SDS011;2595;53.584;10.084;2022-09-27T06:35:52;10.13;;;9.23;;
5153;SDS011;2595;53.584;10.084;2022-09-27T06:38:18;9.27;;;8.50;;
5153;SDS011;2595;53.584;10.084;2022-09-27T06:40:45;9.10;;;8.40;;
5153;SDS011;2595;53.584;10.084;2022-09-27T06:43:12;8.90;;;8.10;;
5153;SDS011;2595;53.584;10.084;2022-09-27T06:45:40;7.77;;;7.30;;
5153;SDS011;2595;53.584;10.084;2022-09-27T06:48:07;7.77;;;6.53;;
5153;SDS011;2595;53.584;10.084;2022-09-27T06:50:35;6.50;;;5.90;;
5153;SDS011;2595;53.584;10.084;2022-09-27T06:53:05;6.20;;;5.70;;
5153;SDS011;2595;53.584;10.084;2022-09-27T06:55:34;5.90;;;5.50;;
5153;SDS011;2595;53.584;10.084;2022-09-27T06:58:00;6.07;;;5.57;;
5153;SDS011;2595;53.584;10.084;2022-09-27T07:00:47;4.90;;;4.50;;
5153;SDS011;2595;53.584;10.084;2022-09-27T07:03:14;4.77;;;4.47;;
5153;SDS011;2595;53.584;10.084;2022-09-27T07:05:40;4.40;;;4.10;;
5153;SDS011;2595;53.584;10.084;2022-09-27T07:08:07;3.53;;;3.23;;
5153;SDS011;2595;53.584;10.084;2022-09-27T07:10:37;3.27;;;3.07;;
5153;SDS011;2595;53.584;10.084;2022-09-27T07:13:04;3.47;;;3.27;;
5153;SDS011;2595;53.584;10.084;2022-09-27T07:15:30;3.33;;;3.13;;
5153;SDS011;2595;53.584;10.084;2022-09-27T07:17:56;2.57;;;2.37;;
5153;SDS011;2595;53.584;10.084;2022-09-27T07:20:24;4.97;;;2.30;;
5153;SDS011;2595;53.584;10.084;2022-09-27T07:22:50;2.50;;;2.33;;
5153;SDS011;2595;53.584;10.084;2022-09-27T07:25:16;1.93;;;1.83;;
5153;SDS011;2595;53.584;10.084;2022-09-27T07:27:42;2.30;;;2.20;;
5153;SDS011;2595;53.584;10.084;2022-09-27T07:30:09;2.23;;;2.07;;
5153;SDS011;2595;53.584;10.084;2022-09-27T07:32:36;2.17;;;2.00;;
5153;SDS011;2595;53.584;10.084;2022-09-27T07:35:02;1.40;;;1.27;;
5153;SDS011;2595;53.584;10.084;2022-09-27T07:37:32;2.47;;;1.50;;
5153;SDS011;2595;53.584;10.084;2022-09-27T07:39:59;1.30;;;1.20;;
5153;SDS011;2595;53.584;10.084;2022-09-27T07:42:26;1.70;;;1.20;;
5153;SDS011;2595;53.584;10.084;2022-09-27T07:44:53;1.30;;;1.20;;
5153;SDS011;2595;53.584;10.084;2022-09-27T07:47:19;1.30;;;1.20;;
5153;SDS011;2595;53.584;10.084;2022-09-27T07:49:48;1.23;;;1.13;;
5153;SDS011;2595;53.584;10.084;2022-09-27T07:52:13;1.47;;;1.20;;
5153;SDS011;2595;53.584;10.084;2022-09-27T07:54:39;5.53;;;1.00;;
5153;SDS011;2595;53.584;10.084;2022-09-27T07:57:05;1.23;;;0.90;;
5153;SDS011;2595;53.584;10.084;2022-09-27T07:59:30;2.27;;;1.27;;
5153;SDS011;2595;53.584;10.084;2022-09-27T08:01:56;1.70;;;1.60;;
5153;SDS011;2595;53.584;10.084;2022-09-27T08:04:21;2.03;;;1.00;;
5153;SDS011;2595;53.584;10.084;2022-09-27T08:06:47;1.10;;;0.97;;
5153;SDS011;2595;53.584;10.084;2022-09-27T08:09:13;1.30;;;1.20;;
5153;SDS011;2595;53.584;10.084;2022-09-27T08:11:38;1.60;;;1.07;;
5153;SDS011;2595;53.584;10.084;2022-09-27T08:14:05;1.30;;;0.90;;
5153;SDS011;2595;53.584;10.084;2022-09-27T08:16:34;2.10;;;1.40;;
5153;SDS011;2595;53.584;10.084;2022-09-27T08:18:59;1.40;;;1.30;;
5153;SDS011;2595;53.584;10.084;2022-09-27T08:21:25;1.10;;;1.10;;
5153;SDS011;2595;53.584;10.084;2022-09-27T08:23:51;1.50;;;1.40;;
5153;SDS011;2595;53.584;10.084;2022-09-27T08:26:17;1.47;;;1.37;;
5153;SDS011;2595;53.584;10.084;2022-09-27T08:28:43;1.33;;;1.23;;
5153;SDS011;2595;53.584;10.084;2022-09-27T08:31:11;1.83;;;1.20;;
5153;SDS011;2595;53.584;10.084;2022-09-27T08:33:37;1.33;;;1.23;;
5153;SDS011;2595;53.584;10.084;2022-09-27T08:36:03;2.80;;;1.30;;
5153;SDS011;2595;53.584;10.084;2022-09-27T08:38:34;1.30;;;1.20;;
5153;SDS011;2595;53.584;10.084;2022-09-27T08:41:34;1.50;;;1.40;;
5153;SDS011;2595;53.584;10.084;2022-09-27T08:46:48;1.60;;;1.50;;
5153;SDS011;2595;53.584;10.084;2022-09-27T08:52:31;1.40;;;1.30;;
5153;SDS011;2595;53.584;10.084;2022-09-27T08:55:05;2.80;;;1.93;;
5153;SDS011;2595;53.584;10.084;2022-09-27T08:57:44;1.47;;;1.00;;
5153;SDS011;2595;53.584;10.084;2022-09-27T09:00:16;1.60;;;1.43;;
5153;SDS011;2595;53.584;10.084;2022-09-27T09:02:42;1.40;;;1.20;;
5153;SDS011;2595;53.584;10.084;2022-09-27T09:05:13;1.93;;;1.40;;
5153;SDS011;2595;53.584;10.084;2022-09-27T09:07:56;2.77;;;1.27;;
5153;SDS011;2595;53.584;10.084;2022-09-27T09:13:51;2.13;;;1.57;;
5153;SDS011;2595;53.584;10.084;2022-09-27T09:16:44;1.80;;;1.47;;
5153;SDS011;2595;53.584;10.084;2022-09-27T09:19:37;2.07;;;1.90;;
5153;SDS011;2595;53.584;10.084;2022-09-27T09:30:43;1.60;;;1.50;;
5153;SDS011;2595;53.584;10.084;2022-09-27T09:33:24;1.77;;;1.60;;
5153;SDS011;2595;53.584;10.084;2022-09-27T09:38:59;1.10;;;1.10;;
5153;SDS011;2595;53.584;10.084;2022-09-27T09:41:30;1.60;;;1.50;;
5153;SDS011;2595;53.584;10.084;2022-09-27T09:44:04;1.50;;;1.40;;
5153;SDS011;2595;53.584;10.084;2022-09-27T09:46:40;1.70;;;1.60;;
5153;SDS011;2595;53.584;10.084;2022-09-27T09:51:49;1.87;;;1.77;;
5153;SDS011;2595;53.584;10.084;2022-09-27T09:57:26;1.43;;;1.33;;
5153;SDS011;2595;53.584;10.084;2022-09-27T10:00:00;1.10;;;1.10;;
5153;SDS011;2595;53.584;10.084;2022-09-27T10:02:37;1.40;;;1.30;;
5153;SDS011;2595;53.584;10.084;2022-09-27T10:05:04;1.40;;;1.30;;
5153;SDS011;2595;53.584;10.084;2022-09-27T10:07:32;1.10;;;1.00;;
5153;SDS011;2595;53.584;10.084;2022-09-27T10:10:01;1.20;;;1.10;;
5153;SDS011;2595;53.584;10.084;2022-09-27T10:12:29;1.67;;;1.40;;
5153;SDS011;2595;53.584;10.084;2022-09-27T10:14:56;1.50;;;1.40;;
5153;SDS011;2595;53.584;10.084;2022-09-27T10:17:27;1.03;;;0.93;;
5153;SDS011;2595;53.584;10.084;2022-09-27T10:20:03;1.40;;;1.30;;
5153;SDS011;2595;53.584;10.084;2022-09-27T10:22:38;1.40;;;1.30;;
5153;SDS011;2595;53.584;10.084;2022-09-27T10:25:09;2.13;;;1.90;;
5153;SDS011;2595;53.584;10.084;2022-09-27T10:27:49;1.20;;;1.10;;
5153;SDS011;2595;53.584;10.084;2022-09-27T10:30:21;1.30;;;1.20;;
5153;SDS011;2595;53.584;10.084;2022-09-27T10:32:53;1.50;;;1.10;;
5153;SDS011;2595;53.584;10.084;2022-09-27T10:35:34;1.50;;;1.40;;
5153;SDS011;2595;53.584;10.084;2022-09-27T10:38:16;1.00;;;1.00;;
5153;SDS011;2595;53.584;10.084;2022-09-27T10:40:48;1.23;;;1.23;;
5153;SDS011;2595;53.584;10.084;2022-09-27T10:43:31;1.00;;;1.00;;
5153;SDS011;2595;53.584;10.084;2022-09-27T10:48:38;1.13;;;1.03;;
5153;SDS011;2595;53.584;10.084;2022-09-27T10:51:07;1.30;;;1.20;;
5153;SDS011;2595;53.584;10.084;2022-09-27T10:53:44;2.27;;;1.77;;
5153;SDS011;2595;53.584;10.084;2022-09-27T10:56:25;1.33;;;1.23;;
5153;SDS011;2595;53.584;10.084;2022-09-27T10:58:53;1.77;;;1.20;;
5153;SDS011;2595;53.584;10.084;2022-09-27T11:01:20;1.50;;;1.40;;
5153;SDS011;2595;53.584;10.084;2022-09-27T11:03:53;1.00;;;0.93;;
5153;SDS011;2595;53.584;10.084;2022-09-27T11:08:49;1.30;;;1.20;;
5153;SDS011;2595;53.584;10.084;2022-09-27T11:11:20;1.07;;;1.07;;
5153;SDS011;2595;53.584;10.084;2022-09-27T11:13:59;1.47;;;1.37;;
5153;SDS011;2595;53.584;10.084;2022-09-27T11:16:47;1.30;;;1.20;;
5153;SDS011;2595;53.584;10.084;2022-09-27T11:22:07;1.63;;;1.30;;
5153;SDS011;2595;53.584;10.084;2022-09-27T11:45:19;1.60;;;1.50;;
5153;SDS011;2595;53.584;10.084;2022-09-27T12:01:55;1.17;;;1.07;;
5153;SDS011;2595;53.584;10.084;2022-09-27T12:04:41;2.00;;;1.10;;
5153;SDS011;2595;53.584;10.084;2022-09-27T12:09:42;1.20;;;1.20;;
5153;SDS011;2595;53.584;10.084;2022-09-27T12:12:16;1.10;;;1.00;;
5153;SDS011;2595;53.584;10.084;2022-09-27T12:14:47;1.03;;;1.00;;
5153;SDS011;2595;53.584;10.084;2022-09-27T12:17:19;1.37;;;1.27;;
5153;SDS011;2595;53.584;10.084;2022-09-27T12:19:49;1.00;;;1.00;;
5153;SDS011;2595;53.584;10.084;2022-09-27T12:22:20;1.40;;;1.30;;
5153;SDS011;2595;53.584;10.084;2022-09-27T12:24:51;1.30;;;1.20;;
5153;SDS011;2595;53.584;10.084;2022-09-27T12:27:39;1.40;;;1.30;;
5153;SDS011;2595;53.584;10.084;2022-09-27T12:30:26;1.30;;;1.20;;
5153;SDS011;2595;53.584;10.084;2022-09-27T12:32:56;1.40;;;1.23;;
5153;SDS011;2595;53.584;10.084;2022-09-27T12:35:29;1.10;;;1.10;;
5153;SDS011;2595;53.584;10.084;2022-09-27T12:38:00;1.80;;;0.90;;
5153;SDS011;2595;53.584;10.084;2022-09-27T12:40:37;1.57;;;1.47;;
5153;SDS011;2595;53.584;10.084;2022-09-27T12:43:06;1.07;;;1.00;;
5153;SDS011;2595;53.584;10.084;2022-09-27T12:45:59;1.00;;;1.00;;
5153;SDS011;2595;53.584;10.084;2022-09-27T12:51:21;1.60;;;1.50;;
5153;SDS011;2595;53.584;10.084;2022-09-27T13:07:41;0.97;;;0.90;;
5153;SDS011;2595;53.584;10.084;2022-09-27T13:13:20;0.93;;;0.80;;
5153;SDS011;2595;53.584;10.084;2022-09-27T13:15:50;0.77;;;0.77;;
5153;SDS011;2595;53.584;10.084;2022-09-27T13:19:12;0.87;;;0.87;;
5153;SDS011;2595;53.584;10.084;2022-09-27T13:38:32;0.87;;;0.83;;
5153;SDS011;2595;53.584;10.084;2022-09-27T13:41:14;0.70;;;0.70;;
5153;SDS011;2595;53.584;10.084;2022-09-27T13:43:44;1.17;;;0.90;;
5153;SDS011;2595;53.584;10.084;2022-09-27T13:46:33;1.00;;;0.90;;
5153;SDS011;2595;53.584;10.084;2022-09-27T13:51:42;1.83;;;1.73;;
5153;SDS011;2595;53.584;10.084;2022-09-27T13:54:35;0.80;;;0.80;;
5153;SDS011;2595;53.584;10.084;2022-09-27T13:57:03;1.00;;;1.00;;
5153;SDS011;2595;53.584;10.084;2022-09-27T13:59:44;1.47;;;1.07;;
5153;SDS011;2595;53.584;10.084;2022-09-27T14:05:16;1.47;;;1.37;;
5153;SDS011;2595;53.584;10.084;2022-09-27T14:07:46;0.90;;;0.90;;
5153;SDS011;2595;53.584;10.084;2022-09-27T14:10:15;1.90;;;1.00;;
5153;SDS011;2595;53.584;10.084;2022-09-27T14:12:45;0.93;;;0.83;;
5153;SDS011;2595;53.584;10.084;2022-09-27T14:15:24;1.80;;;1.20;;
5153;SDS011;2595;53.584;10.084;2022-09-27T14:17:53;1.00;;;0.80;;
5153;SDS011;2595;53.584;10.084;2022-09-27T14:22:57;1.37;;;1.00;;
5153;SDS011;2595;53.584;10.084;2022-09-27T14:25:24;2.20;;;1.00;;
5153;SDS011;2595;53.584;10.084;2022-09-27T14:27:50;1.07;;;1.03;;
5153;SDS011;2595;53.584;10.084;2022-09-27T14:30:17;1.83;;;1.17;;
5153;SDS011;2595;53.584;10.084;2022-09-27T14:32:45;1.40;;;1.00;;
5153;SDS011;2595;53.584;10.084;2022-09-27T14:35:19;1.50;;;1.20;;
5153;SDS011;2595;53.584;10.084;2022-09-27T14:38:04;1.13;;;1.03;;
5153;SDS011;2595;53.584;10.084;2022-09-27T14:40:43;0.80;;;0.80;;
5153;SDS011;2595;53.584;10.084;2022-09-27T14:43:18;1.10;;;0.90;;
5153;SDS011;2595;53.584;10.084;2022-09-27T14:45:46;0.80;;;0.80;;
5153;SDS011;2595;53.584;10.084;2022-09-27T14:48:37;1.60;;;1.50;;
5153;SDS011;2595;53.584;10.084;2022-09-27T14:51:04;1.20;;;1.10;;
5153;SDS011;2595;53.584;10.084;2022-09-27T14:56:16;3.10;;;1.07;;
5153;SDS011;2595;53.584;10.084;2022-09-27T14:58:51;5.33;;;1.60;;
5153;SDS011;2595;53.584;10.084;2022-09-27T15:01:22;1.27;;;1.17;;
5153;SDS011;2595;53.584;10.084;2022-09-27T15:03:48;1.47;;;1.37;;
5153;SDS011;2595;53.584;10.084;2022-09-27T15:06:15;1.20;;;1.10;;
5153;SDS011;2595;53.584;10.084;2022-09-27T15:08:41;2.93;;;1.10;;
5153;SDS011;2595;53.584;10.084;2022-09-27T15:11:11;2.13;;;2.00;;
5153;SDS011;2595;53.584;10.084;2022-09-27T15:13:37;2.30;;;2.20;;
5153;SDS011;2595;53.584;10.084;2022-09-27T15:16:11;2.00;;;1.90;;
5153;SDS011;2595;53.584;10.084;2022-09-27T15:18:42;3.07;;;1.50;;
5153;SDS011;2595;53.584;10.084;2022-09-27T15:21:28;2.33;;;1.80;;
5153;SDS011;2595;53.584;10.084;2022-09-27T15:23:56;1.57;;;1.47;;
5153;SDS011;2595;53.584;10.084;2022-09-27T15:29:00;1.33;;;1.20;;
5153;SDS011;2595;53.584;10.084;2022-09-27T15:31:29;1.33;;;1.23;;
5153;SDS011;2595;53.584;10.084;2022-09-27T15:33:57;1.40;;;1.30;;
5153;SDS011;2595;53.584;10.084;2022-09-27T15:36:48;1.27;;;1.17;;
5153;SDS011;2595;53.584;10.084;2022-09-27T15:39:16;2.40;;;2.23;;
5153;SDS011;2595;53.584;10.084;2022-09-27T15:44:45;2.07;;;1.73;;
5153;SDS011;2595;53.584;10.084;2022-09-27T15:49:58;2.40;;;1.30;;
5153;SDS011;2595;53.584;10.084;2022-09-27T15:52:43;1.77;;;1.37;;
5153;SDS011;2595;53.584;10.084;2022-09-27T15:55:19;1.40;;;1.30;;
5153;SDS011;2595;53.584;10.084;2022-09-27T15:57:50;1.07;;;0.97;;
5153;SDS011;2595;53.584;10.084;2022-09-27T16:00:25;1.20;;;1.10;;
5153;SDS011;2595;53.584;10.084;2022-09-27T16:02:52;2.87;;;1.23;;
5153;SDS011;2595;53.584;10.084;2022-09-27T16:05:18;2.40;;;1.40;;
5153;SDS011;2595;53.584;10.084;2022-09-27T16:07:43;1.30;;;1.20;;
5153;SDS011;2595;53.584;10.084;2022-09-27T16:10:23;1.67;;;1.50;;
5153;SDS011;2595;53.584;10.084;2022-09-27T16:13:01;3.23;;;1.20;;
5153;SDS011;2595;53.584;10.084;2022-09-27T16:15:26;1.77;;;1.10;;
5153;SDS011;2595;53.584;10.084;2022-09-27T16:17:52;2.93;;;1.33;;
5153;SDS011;2595;53.584;10.084;2022-09-27T16:20:19;2.20;;;1.40;;
5153;SDS011;2595;53.584;10.084;2022-09-27T16:22:50;5.43;;;1.50;;
5153;SDS011;2595;53.584;10.084;2022-09-27T16:25:17;1.23;;;1.13;;
5153;SDS011;2595;53.584;10.084;2022-09-27T16:27:42;1.20;;;1.10;;
5153;SDS011;2595;53.584;10.084;2022-09-27T16:30:08;1.17;;;1.00;;
5153;SDS011;2595;53.584;10.084;2022-09-27T16:32:41;1.83;;;1.03;;
5153;SDS011;2595;53.584;10.084;2022-09-27T16:35:08;1.33;;;1.23;;
5153;SDS011;2595;53.584;10.084;2022-09-27T16:37:34;1.37;;;1.27;;
5153;SDS011;2595;53.584;10.084;2022-09-27T16:40:01;1.63;;;1.53;;
5153;SDS011;2595;53.584;10.084;2022-09-27T16:42:28;1.30;;;1.20;;
5153;SDS011;2595;53.584;10.084;2022-09-27T16:44:54;1.20;;;1.10;;
5153;SDS011;2595;53.584;10.084;2022-09-27T16:47:19;2.13;;;1.43;;
5153;SDS011;2595;53.584;10.084;2022-09-27T16:49:45;3.00;;;1.73;;
5153;SDS011;2595;53.584;10.084;2022-09-27T16:52:30;3.73;;;1.97;;
5153;SDS011;2595;53.584;10.084;2022-09-27T16:54:59;1.60;;;1.50;;
5153;SDS011;2595;53.584;10.084;2022-09-27T16:57:25;3.53;;;1.20;;
5153;SDS011;2595;53.584;10.084;2022-09-27T16:59:52;1.47;;;1.17;;
5153;SDS011;2595;53.584;10.084;2022-09-27T17:02:22;1.30;;;1.20;;
5153;SDS011;2595;53.584;10.084;2022-09-27T17:04:49;1.80;;;1.10;;
5153;SDS011;2595;53.584;10.084;2022-09-27T17:07:15;1.43;;;1.33;;
5153;SDS011;2595;53.584;10.084;2022-09-27T17:09:41;1.43;;;1.10;;
5153;SDS011;2595;53.584;10.084;2022-09-27T17:12:11;1.30;;;1.20;;
5153;SDS011;2595;53.584;10.084;2022-09-27T17:14:38;2.23;;;1.30;;
5153;SDS011;2595;53.584;10.084;2022-09-27T17:17:04;2.90;;;2.00;;
5153;SDS011;2595;53.584;10.084;2022-09-27T17:19:30;2.33;;;1.63;;
5153;SDS011;2595;53.584;10.084;2022-09-27T17:21:56;1.97;;;1.60;;
5153;SDS011;2595;53.584;10.084;2022-09-27T17:24:22;3.60;;;1.50;;
5153;SDS011;2595;53.584;10.084;2022-09-27T17:26:48;2.10;;;1.20;;
5153;SDS011;2595;53.584;10.084;2022-09-27T17:29:14;2.30;;;1.70;;
5153;SDS011;2595;53.584;10.084;2022-09-27T17:31:40;1.70;;;1.60;;
5153;SDS011;2595;53.584;10.084;2022-09-27T17:34:07;2.77;;;1.70;;
5153;SDS011;2595;53.584;10.084;2022-09-27T17:36:36;1.47;;;1.37;;
5153;SDS011;2595;53.584;10.084;2022-09-27T17:39:06;2.37;;;2.13;;
5153;SDS011;2595;53.584;10.084;2022-09-27T17:41:35;1.40;;;1.30;;
5153;SDS011;2595;53.584;10.084;2022-09-27T17:44:02;1.87;;;1.50;;
5153;SDS011;2595;53.584;10.084;2022-09-27T17:46:33;1.63;;;1.20;;
5153;SDS011;2595;53.584;10.084;2022-09-27T17:48:59;1.30;;;1.20;;
5153;SDS011;2595;53.584;10.084;2022-09-27T17:51:45;2.03;;;1.60;;
5153;SDS011;2595;53.584;10.084;2022-09-27T17:54:12;3.63;;;3.33;;
5153;SDS011;2595;53.584;10.084;2022-09-27T17:56:38;3.53;;;2.00;;
5153;SDS011;2595;53.584;10.084;2022-09-27T17:59:05;6.33;;;1.40;;
5153;SDS011;2595;53.584;10.084;2022-09-27T18:01:32;2.27;;;1.50;;
5153;SDS011;2595;53.584;10.084;2022-09-27T18:03:59;1.20;;;1.10;;
5153;SDS011;2595;53.584;10.084;2022-09-27T18:06:25;1.57;;;1.33;;
5153;SDS011;2595;53.584;10.084;2022-09-27T18:08:53;1.83;;;1.40;;
5153;SDS011;2595;53.584;10.084;2022-09-27T18:11:21;1.10;;;1.00;;
5153;SDS011;2595;53.584;10.084;2022-09-27T18:13:54;1.30;;;1.10;;
5153;SDS011;2595;53.584;10.084;2022-09-27T18:16:22;0.90;;;0.90;;
5153;SDS011;2595;53.584;10.084;2022-09-27T18:18:56;1.10;;;1.10;;